createdAt,value
2022-10-07T00:00:52.120Z,11.98
2022-10-07T00:06:02.576Z,12.02
2022-10-07T00:11:08.280Z,12.08
2022-10-07T00:16:17.415Z,12.00
2022-10-07T00:21:21.086Z,12.05
2022-10-07T00:26:26.136Z,12.01
2022-10-07T00:31:33.110Z,11.86
2022-10-07T00:36:38.975Z,11.86
2022-10-07T00:41:44.072Z,11.83
2022-10-07T00:46:48.628Z,11.93
2022-10-07T00:51:52.941Z,11.89
2022-10-07T00:56:58.981Z,11.81
2022-10-07T01:02:04.316Z,11.71
2022-10-07T01:07:06.945Z,11.73
2022-10-07T01:12:18.192Z,11.75
2022-10-07T01:17:28.638Z,11.79
2022-10-07T01:22:40.824Z,11.60
2022-10-07T01:27:49.515Z,11.72
2022-10-07T01:32:59.100Z,11.65
2022-10-07T01:38:07.313Z,11.58
2022-10-07T01:43:16.879Z,11.50
2022-10-07T01:48:19.598Z,11.31
2022-10-07T01:53:37.692Z,11.47
2022-10-07T01:59:01.575Z,11.47
2022-10-07T02:04:22.685Z,11.44
2022-10-07T02:09:33.470Z,11.41
2022-10-07T02:14:44.257Z,11.34
2022-10-07T02:19:53.004Z,11.44
2022-10-07T02:24:58.974Z,11.10
2022-10-07T02:30:07.613Z,11.02
2022-10-07T02:35:16.263Z,10.95
2022-10-07T02:40:19.588Z,10.94
2022-10-07T02:45:30.214Z,10.93
2022-10-07T02:50:41.003Z,11.02
2022-10-07T02:55:45.967Z,11.08
2022-10-07T03:00:55.391Z,11.01
2022-10-07T03:05:58.549Z,10.75
2022-10-07T03:11:01.708Z,10.85
2022-10-07T03:16:07.482Z,10.53
2022-10-07T03:21:10.124Z,10.43
2022-10-07T03:26:13.229Z,10.47
2022-10-07T03:31:17.348Z,10.44
2022-10-07T03:36:25.067Z,10.41
2022-10-07T03:41:27.800Z,10.42
2022-10-07T03:46:35.098Z,10.27
2022-10-07T03:51:37.778Z,10.26
2022-10-07T03:56:42.637Z,10.22
2022-10-07T04:01:47.054Z,10.20
2022-10-07T04:06:49.677Z,10.23
2022-10-07T04:11:52.340Z,10.20
2022-10-07T04:16:57.284Z,10.18
2022-10-07T04:22:01.310Z,10.04
2022-10-07T04:27:05.931Z,10.13
2022-10-07T04:32:10.059Z,10.16
2022-10-07T04:37:13.405Z,10.19
2022-10-07T04:42:30.576Z,10.21
2022-10-07T04:47:35.399Z,10.20
2022-10-07T04:52:40.513Z,10.19
2022-10-07T04:57:43.833Z,10.21
2022-10-07T05:02:50.385Z,10.26
2022-10-07T05:07:55.332Z,10.25
2022-10-07T05:13:01.152Z,10.25
2022-10-07T05:18:05.871Z,10.30
2022-10-07T05:23:08.484Z,10.30
2022-10-07T05:28:11.576Z,10.37
2022-10-07T05:33:17.327Z,10.34
2022-10-07T05:38:20.003Z,10.32
2022-10-07T05:43:23.108Z,10.31
2022-10-07T05:48:28.890Z,10.25
2022-10-07T05:53:32.606Z,10.22
2022-10-07T05:58:36.722Z,10.25
2022-10-07T06:03:40.974Z,9.98
2022-10-07T06:08:43.871Z,10.16
2022-10-07T06:13:49.280Z,10.21
2022-10-07T06:18:54.736Z,10.27
2022-10-07T06:23:59.736Z,10.32
2022-10-07T06:29:07.268Z,10.41
2022-10-07T06:34:11.258Z,10.57
2022-10-07T06:39:14.141Z,10.69
2022-10-07T06:44:18.656Z,10.72
2022-10-07T06:49:22.932Z,10.80
2022-10-07T06:54:26.690Z,10.91
2022-10-07T06:59:29.876Z,10.95
2022-10-07T07:04:42.465Z,10.95
2022-10-07T07:09:45.626Z,10.98
2022-10-07T07:14:48.260Z,11.13
2022-10-07T07:19:56.365Z,11.29
2022-10-07T07:24:59.022Z,11.32
2022-10-07T07:30:01.999Z,11.41
2022-10-07T07:35:09.541Z,11.54
2022-10-07T07:40:12.353Z,11.61
2022-10-07T07:45:15.876Z,11.77
2022-10-07T07:50:22.193Z,11.83
2022-10-07T07:55:24.809Z,11.93
2022-10-07T08:00:27.799Z,12.06
2022-10-07T08:05:39.921Z,12.23
2022-10-07T08:10:42.840Z,12.38
2022-10-07T08:15:45.776Z,12.47
2022-10-07T08:20:58.460Z,12.61
2022-10-07T08:26:02.944Z,12.66
2022-10-07T08:31:08.050Z,12.81
2022-10-07T08:36:15.475Z,12.96
2022-10-07T08:41:31.926Z,12.93
2022-10-07T08:46:38.946Z,13.23
2022-10-07T08:51:48.282Z,13.38
2022-10-07T08:56:50.908Z,13.51
2022-10-07T09:02:11.814Z,13.66
2022-10-07T09:07:19.930Z,13.82
2022-10-07T09:12:26.375Z,13.92
2022-10-07T09:17:35.272Z,14.10
2022-10-07T09:22:42.367Z,14.17
2022-10-07T09:27:45.103Z,14.35
2022-10-07T09:32:50.450Z,14.74
2022-10-07T09:38:00.359Z,15.05
2022-10-07T09:43:10.376Z,15.09
2022-10-07T09:48:19.968Z,15.07
2022-10-07T09:53:25.701Z,15.22
2022-10-07T09:58:30.705Z,15.29
2022-10-07T10:03:35.588Z,15.35
2022-10-07T10:08:43.171Z,15.41
2022-10-07T10:13:51.496Z,15.48
2022-10-07T10:18:56.058Z,15.42
2022-10-07T10:24:00.929Z,15.70
2022-10-07T10:29:13.703Z,15.83
2022-10-07T10:34:29.916Z,15.78
2022-10-07T10:39:48.525Z,16.07
2022-10-07T10:45:08.023Z,16.20
2022-10-07T10:50:19.162Z,16.28
2022-10-07T10:55:36.747Z,16.46
2022-10-07T11:00:51.257Z,16.65
2022-10-07T11:05:56.710Z,16.75
2022-10-07T11:11:07.035Z,16.98
2022-10-07T11:16:14.679Z,17.00
2022-10-07T11:21:25.821Z,17.03
2022-10-07T11:26:37.310Z,17.08
2022-10-07T11:31:45.386Z,17.25
2022-10-07T11:36:58.645Z,17.52
2022-10-07T11:42:07.952Z,17.66
2022-10-07T11:47:16.476Z,17.75
2022-10-07T11:52:24.234Z,17.96
2022-10-07T11:57:32.422Z,17.93
2022-10-07T12:02:41.732Z,18.24
2022-10-07T12:08:02.117Z,18.39
2022-10-07T12:13:41.304Z,18.65
2022-10-07T12:19:23.043Z,18.75
2022-10-07T12:24:27.517Z,18.91
2022-10-07T12:29:45.548Z,19.08
2022-10-07T12:34:49.411Z,19.19
2022-10-07T12:39:52.899Z,19.30
2022-10-07T12:44:56.451Z,19.29
2022-10-07T12:50:04.655Z,19.44
2022-10-07T12:55:11.402Z,19.24
2022-10-07T13:00:16.448Z,19.83
2022-10-07T13:05:51.769Z,19.88
2022-10-07T13:11:15.438Z,19.93
2022-10-07T13:16:31.618Z,20.06
2022-10-07T13:21:38.604Z,20.11
2022-10-07T13:26:45.872Z,20.02
2022-10-07T13:32:04.061Z,19.88
2022-10-07T13:37:27.043Z,20.03
2022-10-07T13:42:30.807Z,19.82
2022-10-07T13:47:35.091Z,19.64
2022-10-07T13:52:43.353Z,19.50
2022-10-07T13:57:46.293Z,19.33
2022-10-07T14:02:50.656Z,19.17
2022-10-07T14:07:57.069Z,19.07
2022-10-07T14:13:03.173Z,18.99
2022-10-07T14:18:09.196Z,18.97
2022-10-07T14:23:23.398Z,18.89
2022-10-07T14:28:30.857Z,18.62
2022-10-07T14:34:00.943Z,18.78
2022-10-07T14:39:32.408Z,18.81
2022-10-07T14:44:35.008Z,18.72
2022-10-07T14:49:37.523Z,18.69
2022-10-07T14:54:41.814Z,18.52
2022-10-07T14:59:45.352Z,18.41
2022-10-07T15:04:48.261Z,18.34
2022-10-07T15:09:52.301Z,18.25
2022-10-07T15:14:54.907Z,18.24
2022-10-07T15:19:58.165Z,18.27
2022-10-07T15:25:03.284Z,18.24
2022-10-07T15:30:07.111Z,18.14
2022-10-07T15:35:10.087Z,18.12
2022-10-07T15:40:14.516Z,18.05
2022-10-07T15:45:17.197Z,17.93
2022-10-07T15:50:19.908Z,17.88
2022-10-07T15:55:23.813Z,17.81
2022-10-07T16:00:26.824Z,17.67
2022-10-07T16:05:31.207Z,17.63
2022-10-07T16:10:38.144Z,17.52
2022-10-07T16:15:42.278Z,17.49
2022-10-07T16:20:45.460Z,17.40
2022-10-07T16:25:49.319Z,17.39
2022-10-07T16:30:52.130Z,17.30
2022-10-07T16:35:54.732Z,17.24
2022-10-07T16:40:58.600Z,17.04
2022-10-07T16:46:02.088Z,16.91
2022-10-07T16:51:05.611Z,16.85
2022-10-07T16:56:10.697Z,16.81
2022-10-07T17:01:16.497Z,16.82
2022-10-07T17:06:21.417Z,16.86
2022-10-07T17:11:31.208Z,16.72
2022-10-07T17:16:36.314Z,16.61
2022-10-07T17:21:40.775Z,16.49
2022-10-07T17:26:45.697Z,16.38
2022-10-07T17:31:50.559Z,16.32
2022-10-07T17:36:54.096Z,16.27
2022-10-07T17:41:58.364Z,16.14
2022-10-07T17:47:03.565Z,16.04
2022-10-07T17:52:06.353Z,15.93
2022-10-07T17:57:10.667Z,15.80
2022-10-07T18:02:13.251Z,15.64
2022-10-07T18:07:16.196Z,15.61
2022-10-07T18:12:37.725Z,15.55
2022-10-07T18:17:40.357Z,15.43
2022-10-07T18:22:44.012Z,15.39
2022-10-07T18:27:48.470Z,15.24
2022-10-07T18:32:51.648Z,15.22
2022-10-07T18:37:54.176Z,15.12
2022-10-07T18:42:58.072Z,15.06
2022-10-07T18:48:00.661Z,14.94
2022-10-07T18:53:03.520Z,14.82
2022-10-07T18:58:07.967Z,14.71
2022-10-07T19:03:10.619Z,14.50
2022-10-07T19:08:13.271Z,14.53
2022-10-07T19:13:34.844Z,14.36
2022-10-07T19:18:38.260Z,14.25
2022-10-07T19:23:44.433Z,14.11
2022-10-07T19:28:49.795Z,14.08
2022-10-07T19:33:56.081Z,14.09
2022-10-07T19:38:59.456Z,14.07
2022-10-07T19:44:04.371Z,14.04
2022-10-07T19:49:09.125Z,13.96
2022-10-07T19:54:11.987Z,13.82
2022-10-07T19:59:16.257Z,13.52
2022-10-07T20:04:20.960Z,13.36
2022-10-07T20:09:24.021Z,13.42
2022-10-07T20:14:28.103Z,13.45
2022-10-07T20:19:30.759Z,13.50
2022-10-07T20:24:33.524Z,13.36
2022-10-07T20:29:56.988Z,13.28
2022-10-07T20:34:59.569Z,13.38
2022-10-07T20:40:20.048Z,13.47
2022-10-07T20:45:24.029Z,13.49
2022-10-07T20:50:26.627Z,13.51
2022-10-07T20:55:31.981Z,13.35
2022-10-07T21:00:39.357Z,13.30
2022-10-07T21:05:41.942Z,13.30
2022-10-07T21:10:44.860Z,13.31
2022-10-07T21:15:48.720Z,13.17
2022-10-07T21:20:56.310Z,13.01
2022-10-07T21:26:01.396Z,13.04
2022-10-07T21:31:08.342Z,12.99
2022-10-07T21:36:15.718Z,12.92
2022-10-07T21:41:20.411Z,12.75
2022-10-07T21:46:25.738Z,12.58
2022-10-07T21:51:29.438Z,12.49
2022-10-07T21:56:33.491Z,12.43
2022-10-07T22:01:38.196Z,12.49
2022-10-07T22:06:58.577Z,12.53
2022-10-07T22:12:01.147Z,12.54
2022-10-07T22:17:05.122Z,12.66
2022-10-07T22:22:08.087Z,12.39
2022-10-07T22:27:10.703Z,12.66
2022-10-07T22:32:14.600Z,12.70
2022-10-07T22:37:17.118Z,12.48
2022-10-07T22:42:19.654Z,12.50
2022-10-07T22:47:23.521Z,12.44
2022-10-07T22:52:26.052Z,12.47
2022-10-07T22:57:29.376Z,12.50
2022-10-07T23:02:33.447Z,12.48
2022-10-07T23:07:36.068Z,12.56
2022-10-07T23:12:38.608Z,12.59
2022-10-07T23:17:42.494Z,12.53
2022-10-07T23:22:45.234Z,12.59
2022-10-07T23:27:47.995Z,12.66
2022-10-07T23:32:51.966Z,12.66
2022-10-07T23:37:56.561Z,12.65
2022-10-07T23:42:59.098Z,12.64
2022-10-07T23:48:02.977Z,12.55
2022-10-07T23:53:05.504Z,12.50
2022-10-07T23:58:08.163Z,12.56
